CMT3 weather

Foothills Hospital McCaig Tower Helipad
Calgary, Alberta, Canada

Public forecast

Using degrees Celsius for public forecast. Weather courtesy of forecast.io.

Closest aviation weather report (METAR) to Foothills Hospital McCaig Tower Helipad

Closest report is Calgary International Airport, 5.2 nm (9.7 km) NE. Retrieved 2019/12/09 07:29 UTC (30 minutes ago):

CYYC 090729Z 27011KT 190V310 7SM BKN066 M04/M10 A2991 RMK AC6 WSHFT 0726 / VIRGA SLP197

Closest aviation forecast (TAF) to Foothills Hospital McCaig Tower Helipad

Closest forecast is Calgary International Airport, 5.2 nm (9.7 km) NE. Retrieved 2019/12/09 09:39 UTC (0 seconds ago):

TAF CYYC 090838Z 0909/1006 28008KT P6SM SCT040 BKN080 OVC200 FM091600 30008KT P6SM SCT015 BKN040 OVC080 TEMPO 0916/1004 4SM -SN BKN015 OVC040 BECMG 0922/0924 VRB03KT FM100400 28006KT P6SM BKN025 TEMPO 1004/1006 BKN012 RMK NXT FCST BY 091200Z